sensor_id;sensor_type;location;lat;lon;timestamp;pressure;altitude;pressure_sealevel;temperature;humidity
65054;BME280;51639;47.828;35.038;2024-03-06T00:10:00;100252.25;;;5.03;100.00
65054;BME280;51639;47.828;35.038;2024-03-06T00:25:03;100241.81;;;5.89;100.00
65054;BME280;51639;47.828;35.038;2024-03-06T00:40:06;100234.88;;;5.95;100.00
65054;BME280;51639;47.828;35.038;2024-03-06T00:55:09;100223.66;;;5.64;100.00
65054;BME280;51639;47.828;35.038;2024-03-06T01:10:11;100210.19;;;5.64;100.00
65054;BME280;51639;47.828;35.038;2024-03-06T01:25:13;100210.19;;;5.71;100.00
65054;BME280;51639;47.828;35.038;2024-03-06T01:40:15;100220.91;;;5.50;100.00
65054;BME280;51639;47.828;35.038;2024-03-06T01:55:18;100204.75;;;5.54;100.00
65054;BME280;51639;47.828;35.038;2024-03-06T02:10:20;100210.88;;;5.43;100.00
65054;BME280;51639;47.828;35.038;2024-03-06T02:25:22;100208.53;;;5.28;98.31
65054;BME280;51639;47.828;35.038;2024-03-06T02:40:25;100208.50;;;5.13;95.97
65054;BME280;51639;47.828;35.038;2024-03-06T02:55:27;100219.50;;;4.87;96.18
65054;BME280;51639;47.828;35.038;2024-03-06T03:10:29;100251.06;;;3.91;100.00
65054;BME280;51639;47.828;35.038;2024-03-06T03:25:31;100250.94;;;3.81;99.07
65054;BME280;51639;47.828;35.038;2024-03-06T03:40:33;100264.63;;;4.09;97.26
65054;BME280;51639;47.828;35.038;2024-03-06T03:55:35;100272.44;;;4.21;92.24
65054;BME280;51639;47.828;35.038;2024-03-06T04:10:37;100290.69;;;4.05;95.70
65054;BME280;51639;47.828;35.038;2024-03-06T04:25:42;100289.84;;;3.60;97.28
65054;BME280;51639;47.828;35.038;2024-03-06T04:40:44;100297.28;;;4.55;85.11
65054;BME280;51639;47.828;35.038;2024-03-06T04:55:46;100303.91;;;3.84;90.03
65054;BME280;51639;47.828;35.038;2024-03-06T05:10:48;100316.22;;;4.22;86.66
65054;BME280;51639;47.828;35.038;2024-03-06T05:26:08;100319.91;;;4.10;86.48
65054;BME280;51639;47.828;35.038;2024-03-06T05:41:27;100317.88;;;3.63;92.38
65054;BME280;51639;47.828;35.038;2024-03-06T05:56:51;100323.94;;;4.30;93.56
65054;BME280;51639;47.828;35.038;2024-03-06T06:12:10;100320.09;;;4.28;95.40
65054;BME280;51639;47.828;35.038;2024-03-06T06:27:14;100308.78;;;4.52;96.09
65054;BME280;51639;47.828;35.038;2024-03-06T06:42:16;100313.94;;;4.24;96.41
65054;BME280;51639;47.828;35.038;2024-03-06T06:57:18;100319.69;;;4.70;99.17
65054;BME280;51639;47.828;35.038;2024-03-06T07:12:22;100299.75;;;7.64;83.05
65054;BME280;51639;47.828;35.038;2024-03-06T07:27:25;100288.06;;;9.86;61.28
65054;BME280;51639;47.828;35.038;2024-03-06T07:42:29;100274.69;;;10.96;54.65
65054;BME280;51639;47.828;35.038;2024-03-06T07:57:31;100303.59;;;11.85;52.15
65054;BME280;51639;47.828;35.038;2024-03-06T08:12:33;100292.00;;;12.66;50.24
65054;BME280;51639;47.828;35.038;2024-03-06T08:27:38;100297.97;;;13.06;48.93
65054;BME280;51639;47.828;35.038;2024-03-06T08:42:41;100284.88;;;14.10;47.36
65054;BME280;51639;47.828;35.038;2024-03-06T08:57:44;100294.69;;;14.20;45.06
65054;BME280;51639;47.828;35.038;2024-03-06T09:12:46;100313.97;;;13.04;46.30
65054;BME280;51639;47.828;35.038;2024-03-06T09:27:49;100311.59;;;13.06;47.31
65054;BME280;51639;47.828;35.038;2024-03-06T09:42:51;100309.97;;;14.30;44.25
65054;BME280;51639;47.828;35.038;2024-03-06T09:57:53;100281.69;;;14.24;43.52
65054;BME280;51639;47.828;35.038;2024-03-06T10:12:56;100288.94;;;14.78;43.79
65054;BME280;51639;47.828;35.038;2024-03-06T10:28:06;100281.31;;;15.60;42.61
65054;BME280;51639;47.828;35.038;2024-03-06T10:43:09;100271.06;;;14.51;43.95
65054;BME280;51639;47.828;35.038;2024-03-06T10:58:15;100270.38;;;15.16;43.52
65054;BME280;51639;47.828;35.038;2024-03-06T11:13:23;100260.50;;;15.93;42.71
65054;BME280;51639;47.828;35.038;2024-03-06T11:28:28;100255.56;;;15.26;43.77
65054;BME280;51639;47.828;35.038;2024-03-06T11:43:31;100250.09;;;14.48;44.61
65054;BME280;51639;47.828;35.038;2024-03-06T11:58:33;100247.53;;;14.66;44.04
65054;BME280;51639;47.828;35.038;2024-03-06T12:13:35;100243.78;;;13.50;44.84
65054;BME280;51639;47.828;35.038;2024-03-06T12:28:38;100256.63;;;12.95;47.06
65054;BME280;51639;47.828;35.038;2024-03-06T12:43:41;100273.50;;;11.56;49.76
65054;BME280;51639;47.828;35.038;2024-03-06T12:58:43;100268.44;;;11.39;50.28
65054;BME280;51639;47.828;35.038;2024-03-06T13:13:45;100272.91;;;11.09;51.62
65054;BME280;51639;47.828;35.038;2024-03-06T13:28:49;100280.25;;;10.89;52.66
65054;BME280;51639;47.828;35.038;2024-03-06T13:43:51;100284.66;;;11.03;52.35
65054;BME280;51639;47.828;35.038;2024-03-06T13:58:53;100292.13;;;10.75;53.44
65054;BME280;51639;47.828;35.038;2024-03-06T14:13:59;100305.19;;;10.84;53.91
65054;BME280;51639;47.828;35.038;2024-03-06T14:29:02;100307.78;;;10.68;54.04
65054;BME280;51639;47.828;35.038;2024-03-06T14:44:04;100307.00;;;10.17;54.55
65054;BME280;51639;47.828;35.038;2024-03-06T14:59:07;100328.91;;;10.03;54.06
65054;BME280;51639;47.828;35.038;2024-03-06T15:14:09;100358.97;;;10.15;54.25
65054;BME280;51639;47.828;35.038;2024-03-06T15:29:12;100372.66;;;9.74;56.74
65054;BME280;51639;47.828;35.038;2024-03-06T15:44:14;100395.38;;;9.50;59.66
65054;BME280;51639;47.828;35.038;2024-03-06T15:59:16;100410.41;;;7.96;69.13
65054;BME280;51639;47.828;35.038;2024-03-06T16:14:18;100441.44;;;7.45;73.44
65054;BME280;51639;47.828;35.038;2024-03-06T16:29:20;100477.31;;;6.92;79.15
65054;BME280;51639;47.828;35.038;2024-03-06T16:44:23;100476.88;;;6.69;81.70
65054;BME280;51639;47.828;35.038;2024-03-06T16:59:27;100502.97;;;6.26;85.79
65054;BME280;51639;47.828;35.038;2024-03-06T17:14:31;100510.53;;;5.99;86.04
65054;BME280;51639;47.828;35.038;2024-03-06T17:29:34;100520.34;;;6.35;81.45
65054;BME280;51639;47.828;35.038;2024-03-06T17:44:36;100538.19;;;5.92;83.98
65054;BME280;51639;47.828;35.038;2024-03-06T17:59:39;100542.09;;;5.98;84.53
65054;BME280;51639;47.828;35.038;2024-03-06T18:14:48;100568.34;;;5.57;88.11
65054;BME280;51639;47.828;35.038;2024-03-06T18:29:53;100592.91;;;5.11;92.27
65054;BME280;51639;47.828;35.038;2024-03-06T18:45:01;100595.28;;;5.17;91.64
65054;BME280;51639;47.828;35.038;2024-03-06T19:00:09;100612.00;;;4.99;94.19
65054;BME280;51639;47.828;35.038;2024-03-06T19:15:13;100630.50;;;5.04;92.47
65054;BME280;51639;47.828;35.038;2024-03-06T19:30:15;100631.00;;;4.80;92.00
65054;BME280;51639;47.828;35.038;2024-03-06T19:45:17;100654.75;;;4.74;89.16
65054;BME280;51639;47.828;35.038;2024-03-06T20:00:19;100660.53;;;4.47;91.84
65054;BME280;51639;47.828;35.038;2024-03-06T20:15:22;100680.63;;;4.30;92.45
65054;BME280;51639;47.828;35.038;2024-03-06T20:30:24;100678.69;;;4.04;93.54
65054;BME280;51639;47.828;35.038;2024-03-06T20:45:27;100685.09;;;3.96;96.45
65054;BME280;51639;47.828;35.038;2024-03-06T21:00:29;100673.03;;;3.63;99.87
65054;BME280;51639;47.828;35.038;2024-03-06T21:15:36;100679.59;;;3.43;100.00
65054;BME280;51639;47.828;35.038;2024-03-06T21:30:38;100684.31;;;3.11;100.00
65054;BME280;51639;47.828;35.038;2024-03-06T21:45:40;100694.09;;;3.00;100.00
65054;BME280;51639;47.828;35.038;2024-03-06T22:00:44;100713.06;;;2.91;100.00
65054;BME280;51639;47.828;35.038;2024-03-06T22:15:46;100712.88;;;2.84;100.00
65054;BME280;51639;47.828;35.038;2024-03-06T22:30:48;100708.00;;;3.05;100.00
65054;BME280;51639;47.828;35.038;2024-03-06T22:45:51;100727.94;;;2.54;100.00
65054;BME280;51639;47.828;35.038;2024-03-06T23:00:53;100741.91;;;2.63;100.00
65054;BME280;51639;47.828;35.038;2024-03-06T23:15:55;100730.97;;;2.36;100.00
65054;BME280;51639;47.828;35.038;2024-03-06T23:30:57;100725.03;;;2.12;100.00
65054;BME280;51639;47.828;35.038;2024-03-06T23:46:00;100724.09;;;2.04;100.00
